Portada
METAR-TAF:

METAR-TAF

Aeroports :

Kupang, Indonèsia

latitud: 10-10-17S, longitud: 123-40-16E, altitud: 102 m

Observació

L'informe es va fer fa 5 hores i 14 minuts, a les 12:00 UTC
Vent 7 kt del Est
Temperatura 24°C
Humitat 74%
Pressió 1014 hPa
Visibilitat: 8000 m
Escasses núvols a una alçada de 2000 ft

METAR: WATT 211200Z 10007KT 8000 FEW020 24/19 Q1014 NOSIG

Hora: 00:14 (17:14 UTC)

Pronòstic

L'informe es va fer fa 6 hores i 14 minuts, a les 11:00 UTC
Pronòstic vàlid del 21 a les 12 UTC al 22 a les 12 UTC
Vent 8 kt del Est/Sud-Est
Visibilitat: 8000 m
Escasses núvols a una alçada de 2000 ft
Evolucionant progressivament
l' 22 a les 01 UTC al 22 a les 03 UTC
Vent 13 kt del Oest/Nord-Oest

TAF: WATT 211100Z 2112/2212 12008KT 8000 FEW020 BECMG 2201/2203 30013KT

Observacions i pronòstics meteorològics de més de 4000 aeroports (METAR i TAF).

Les estacions disponibles són els punts grocs i vermells al mapa.

Posi el ratolí al punt desitjat per veure el nom de l'estació.

Feu clic per veure les observacions i els pronòstics meteorològics.

Per canviar el mapa: feu clic els botons verds amb una creu de color negre per apropar; al botó verd amb un guió per allunyar la imatge; o en les fletxes verdes per a mapes adjacents.


METAR-TAF: